Time;durP1;ratioP1;P1;durP2;ratioP2;P2;SDS_P1;SDS_P2;PMS_P1;PMS_P2;Temp;Humidity;BMP_temperature;BMP_pressure;BME280_temperature;BME280_humidity;BME280_pressure;Samples;Min_cycle;Max_cycle;Signal;HPM_P1;HPM_P2
2021/06/18 00:01:30;;;;;;;;;10.25;10.00;;;;;22.13;71.24;101032.59;4981879;28;45326;-68
2021/06/18 00:03:56;;;;;;;;;9.75;9.75;;;;;22.13;71.76;101036.13;4982028;28;46309;-68
2021/06/18 00:06:21;;;;;;;;;12.00;11.25;;;;;22.15;71.76;101033.34;4980849;28;45803;-68
2021/06/18 00:08:46;;;;;;;;;11.75;11.75;;;;;22.19;72.27;101032.13;4981329;28;45260;-68
2021/06/18 00:11:12;;;;;;;;;11.50;10.00;;;;;22.20;71.76;101024.97;4982200;28;45176;-68
2021/06/18 00:13:38;;;;;;;;;9.00;7.25;;;;;22.13;71.63;101012.03;4982464;28;45211;-70
2021/06/18 00:16:03;;;;;;;;;14.25;12.75;;;;;22.10;72.08;101014.97;4982270;28;45449;-69
2021/06/18 00:18:28;;;;;;;;;11.75;11.75;;;;;22.13;72.57;101024.56;4982729;28;45196;-69
2021/06/18 00:20:54;;;;;;;;;10.00;10.00;;;;;22.15;72.19;101022.63;4981764;28;45456;-69
2021/06/18 00:23:19;;;;;;;;;11.50;11.50;;;;;22.14;72.23;101010.22;4982026;28;45321;-69
2021/06/18 00:25:45;;;;;;;;;12.00;12.00;;;;;22.13;72.36;101003.16;4980851;28;45231;-69
2021/06/18 00:28:13;;;;;;;;;10.75;10.75;;;;;22.12;72.03;101010.38;4980779;28;45547;-69
2021/06/18 00:30:39;;;;;;;;;14.00;11.00;;;;;22.11;72.48;101019.34;4981925;28;45291;-69
2021/06/18 00:33:04;;;;;;;;;10.00;10.00;;;;;22.13;72.21;101013.88;4981703;28;45355;-69
2021/06/18 00:35:31;;;;;;;;;11.00;10.25;;;;;22.11;71.92;101011.31;4982043;28;45303;-68
2021/06/18 00:37:56;;;;;;;;;11.25;9.25;;;;;22.12;72.57;101012.19;4981563;28;45302;-68
2021/06/18 00:40:22;;;;;;;;;9.00;9.00;;;;;22.11;72.50;101015.81;4982212;28;45236;-68
2021/06/18 00:42:47;;;;;;;;;11.25;9.50;;;;;22.10;72.04;101003.44;4981477;28;45832;-68
2021/06/18 00:45:13;;;;;;;;;13.50;11.50;;;;;22.09;72.70;101012.41;4977621;28;45440;-68
2021/06/18 00:47:51;;;;;;;;;12.25;10.50;;;;;22.10;71.65;101011.44;4982026;28;45324;-68
2021/06/18 00:50:18;;;;;;;;;13.50;11.25;;;;;22.12;72.28;101012.19;4982122;28;45444;-68
2021/06/18 00:52:43;;;;;;;;;9.75;9.75;;;;;22.13;72.40;101008.50;4981280;28;45331;-68
2021/06/18 00:55:09;;;;;;;;;8.75;8.50;;;;;22.17;72.71;101015.34;4980739;28;45812;-69
2021/06/18 00:57:36;;;;;;;;;13.75;12.75;;;;;22.21;72.39;101021.31;4981619;28;45231;-67
2021/06/18 01:00:02;;;;;;;;;11.25;11.25;;;;;22.23;72.64;101016.66;4981629;28;45679;-67
2021/06/18 01:02:27;;;;;;;;;11.00;10.25;;;;;22.24;72.47;101011.22;4981363;28;46366;-67
2021/06/18 01:04:52;;;;;;;;;8.75;8.75;;;;;22.21;72.40;101008.78;4981525;28;45282;-69
2021/06/18 01:07:28;;;;;;;;;9.00;8.00;;;;;22.23;72.14;101008.63;4981265;28;45467;-69
2021/06/18 01:09:59;;;;;;;;;9.50;9.50;;;;;22.24;72.02;101015.72;4981254;28;45484;-69
2021/06/18 01:12:29;;;;;;;;;9.00;8.25;;;;;22.23;72.73;101020.22;4980435;28;45380;-69
2021/06/18 01:15:14;;;;;;;;;9.25;8.25;;;;;22.25;72.15;101012.03;4981565;28;45446;-69
2021/06/18 01:18:14;;;;;;;;;6.50;6.50;;;;;22.20;72.63;101004.38;4975401;28;45256;-68
2021/06/18 01:20:55;;;;;;;;;10.25;7.75;;;;;22.19;72.42;101004.50;4956623;28;45429;-68
2021/06/18 01:23:29;;;;;;;;;8.00;8.00;;;;;22.24;72.82;101013.91;4980772;28;45702;-68
2021/06/18 01:26:15;;;;;;;;;5.25;4.00;;;;;22.24;71.97;100996.97;4981240;28;45521;-67
2021/06/18 01:28:56;;;;;;;;;7.75;5.75;;;;;22.21;72.18;100984.69;4979714;28;45442;-68
2021/06/18 01:31:26;;;;;;;;;7.50;5.75;;;;;22.18;71.55;100968.84;4981439;28;45198;-68
2021/06/18 01:33:58;;;;;;;;;6.50;5.25;;;;;22.13;71.50;100973.72;4981018;28;45363;-68
2021/06/18 01:36:24;;;;;;;;;7.25;6.00;;;;;22.07;71.95;100980.44;4980233;28;45531;-67
2021/06/18 01:38:53;;;;;;;;;6.50;4.25;;;;;22.03;71.53;100977.13;4979851;28;45284;-68
2021/06/18 01:41:22;;;;;;;;;4.75;4.00;;;;;21.98;71.98;100981.13;4979657;28;46918;-68
2021/06/18 01:43:50;;;;;;;;;4.00;4.00;;;;;21.97;72.00;100974.94;4980527;28;45269;-69
2021/06/18 01:46:20;;;;;;;;;3.00;3.00;;;;;21.93;72.10;100965.44;4979552;28;45647;-68
2021/06/18 01:48:50;;;;;;;;;4.75;4.50;;;;;21.94;72.25;100963.63;4980250;28;45407;-68
2021/06/18 01:51:17;;;;;;;;;3.00;3.00;;;;;21.91;71.84;100962.88;4980794;28;45343;-69
2021/06/18 01:53:45;;;;;;;;;4.00;4.00;;;;;21.85;71.71;100959.81;4978936;28;47436;-69
2021/06/18 01:56:17;;;;;;;;;6.50;4.75;;;;;21.85;72.03;100958.00;4981002;28;45254;-68
2021/06/18 01:58:46;;;;;;;;;3.50;3.25;;;;;21.79;72.02;100955.78;4968892;28;45347;-66
2021/06/18 02:01:15;;;;;;;;;5.00;5.00;;;;;21.78;72.99;100954.94;4980514;28;45383;-66
2021/06/18 02:03:43;;;;;;;;;2.50;2.25;;;;;21.77;72.84;100952.38;4980732;28;45656;-66
2021/06/18 02:06:10;;;;;;;;;3.00;3.00;;;;;21.76;72.11;100950.66;4979913;28;45725;-67
2021/06/18 02:08:36;;;;;;;;;2.75;2.75;;;;;21.74;72.31;100949.94;4979966;28;45292;-67
2021/06/18 02:11:04;;;;;;;;;4.50;4.00;;;;;21.72;72.10;100941.19;4978914;28;46267;-67
2021/06/18 02:13:31;;;;;;;;;2.00;2.00;;;;;21.76;72.29;100948.00;4979899;28;46151;-67
2021/06/18 02:15:58;;;;;;;;;5.00;3.25;;;;;21.74;72.34;100950.78;4980711;28;45280;-67
2021/06/18 02:18:26;;;;;;;;;3.75;3.75;;;;;21.78;72.19;100946.06;4978763;28;45649;-67
2021/06/18 02:20:57;;;;;;;;;3.50;3.00;;;;;21.84;72.88;100934.03;4980400;28;45248;-66
2021/06/18 02:23:26;;;;;;;;;3.00;2.50;;;;;21.86;71.97;100932.06;4980176;28;46198;-66
2021/06/18 02:25:52;;;;;;;;;3.00;2.00;;;;;21.83;71.96;100941.19;4980564;28;45406;-66
2021/06/18 02:28:22;;;;;;;;;2.75;2.75;;;;;21.86;72.41;100932.06;4980105;28;45691;-67
2021/06/18 02:30:47;;;;;;;;;2.00;2.00;;;;;21.91;72.18;100924.56;4980582;28;45607;-66
2021/06/18 02:33:13;;;;;;;;;3.50;3.00;;;;;21.94;71.84;100923.47;4979915;28;45378;-67
2021/06/18 02:35:39;;;;;;;;;2.50;2.50;;;;;21.94;71.44;100919.00;4978604;28;45472;-67
2021/06/18 02:38:06;;;;;;;;;2.75;1.75;;;;;21.94;72.26;100912.78;4979666;28;45271;-68
2021/06/18 02:40:32;;;;;;;;;4.75;4.50;;;;;21.95;71.49;100911.81;4978849;28;45593;-67
2021/06/18 02:42:57;;;;;;;;;2.50;2.50;;;;;21.94;71.82;100918.13;4979845;28;45209;-67
2021/06/18 02:45:22;;;;;;;;;5.00;4.25;;;;;21.97;72.36;100915.22;4977783;28;45247;-68
2021/06/18 02:48:21;;;;;;;;;7.00;3.75;;;;;22.01;72.23;100909.50;4979962;28;45197;-68
2021/06/18 02:51:07;;;;;;;;;4.75;4.75;;;;;22.03;72.28;100912.91;4978270;28;47242;-69
2021/06/18 02:53:41;;;;;;;;;5.00;3.25;;;;;22.04;72.56;100908.41;4970229;28;47258;-67
2021/06/18 02:56:31;;;;;;;;;6.00;4.00;;;;;22.06;72.58;100911.81;4979808;28;45474;-65
2021/06/18 02:59:05;;;;;;;;;3.00;3.00;;;;;22.05;71.38;100910.09;4980425;28;45256;-67
2021/06/18 03:01:35;;;;;;;;;3.25;3.25;;;;;21.97;71.58;100905.38;4980058;28;45446;-67
2021/06/18 03:04:01;;;;;;;;;3.00;3.00;;;;;21.96;72.34;100913.50;4979969;28;45314;-67
2021/06/18 03:06:30;;;;;;;;;4.50;4.50;;;;;21.98;72.55;100906.19;4979269;28;46366;-67
2021/06/18 03:09:05;;;;;;;;;3.75;3.75;;;;;21.99;72.57;100900.75;4979983;28;45308;-67
2021/06/18 03:11:35;;;;;;;;;6.00;4.25;;;;;21.98;71.83;100900.84;4979798;28;45278;-68
2021/06/18 03:14:05;;;;;;;;;4.25;3.25;;;;;21.99;72.33;100906.09;4979873;28;45390;-67
2021/06/18 03:16:31;;;;;;;;;4.75;4.50;;;;;21.99;72.63;100889.19;4979330;28;45149;-67
2021/06/18 03:19:02;;;;;;;;;4.50;4.00;;;;;22.00;72.63;100910.47;4982144;28;45400;-67
2021/06/18 03:21:30;;;;;;;;;3.00;3.00;;;;;22.00;72.74;100906.97;4981757;28;45999;-67
2021/06/18 03:23:59;;;;;;;;;4.25;3.00;;;;;22.02;72.79;100911.22;4983073;28;45384;-67
2021/06/18 03:26:25;;;;;;;;;3.50;3.00;;;;;22.01;72.60;100904.16;4983025;28;45291;-67
2021/06/18 03:28:52;;;;;;;;;3.75;3.75;;;;;22.03;72.80;100918.25;4983327;28;45250;-68
2021/06/18 03:31:20;;;;;;;;;3.75;3.50;;;;;22.06;72.37;100945.75;4982781;28;45580;-68
2021/06/18 03:33:47;;;;;;;;;2.50;2.50;;;;;22.11;71.71;100984.56;4982901;28;47151;-68
2021/06/18 03:36:16;;;;;;;;;6.00;4.00;;;;;22.23;71.83;100982.72;4982485;28;45701;-68
2021/06/18 03:38:43;;;;;;;;;3.75;3.75;;;;;22.32;71.49;100994.53;4977289;28;45388;-67
2021/06/18 03:41:09;;;;;;;;;4.25;4.25;;;;;22.39;71.48;100981.53;4981788;28;46494;-67
2021/06/18 03:43:35;;;;;;;;;3.00;3.00;;;;;22.43;71.01;100960.69;4982256;28;45535;-67
2021/06/18 03:46:04;;;;;;;;;5.75;4.00;;;;;22.37;71.12;100949.50;4981535;28;45839;-67
2021/06/18 03:48:31;;;;;;;;;4.25;4.00;;;;;22.38;70.79;100971.78;4982758;28;45363;-67
2021/06/18 03:50:58;;;;;;;;;5.75;4.00;;;;;22.44;71.29;100949.88;4982419;28;45453;-67
2021/06/18 03:53:24;;;;;;;;;7.00;4.00;;;;;22.43;71.03;100956.19;4982391;28;46975;-67
2021/06/18 03:55:49;;;;;;;;;6.75;5.50;;;;;22.46;71.32;100955.94;4982930;28;45396;-67
2021/06/18 03:58:20;;;;;;;;;3.75;3.75;;;;;22.50;71.75;100951.19;4982365;28;45664;-68
2021/06/18 04:00:48;;;;;;;;;7.25;5.25;;;;;22.49;71.80;100944.13;4982505;28;45382;-68
2021/06/18 04:03:15;;;;;;;;;4.50;4.50;;;;;22.46;71.61;100939.88;4982346;28;45598;-67
2021/06/18 04:05:43;;;;;;;;;5.50;4.00;;;;;22.43;71.76;100937.44;4981401;28;45611;-68
2021/06/18 04:08:10;;;;;;;;;6.00;4.00;;;;;22.40;72.23;100940.38;4980898;28;45333;-67
2021/06/18 04:10:39;;;;;;;;;6.25;6.25;;;;;22.39;72.14;100929.78;4982390;28;45498;-68
2021/06/18 04:13:07;;;;;;;;;7.75;5.75;;;;;22.39;72.18;100935.16;4981958;28;45659;-68
2021/06/18 04:15:32;;;;;;;;;6.75;6.00;;;;;22.36;71.90;100931.75;4982790;28;45545;-68
2021/06/18 04:17:58;;;;;;;;;4.75;4.75;;;;;22.32;71.44;100932.94;4980819;28;45820;-69
2021/06/18 04:20:26;;;;;;;;;6.50;4.50;;;;;22.29;71.77;100927.00;4982616;28;45204;-70
2021/06/18 04:22:52;;;;;;;;;6.75;5.25;;;;;22.28;72.10;100927.97;4981525;28;45368;-70
2021/06/18 04:25:18;;;;;;;;;8.00;5.00;;;;;22.23;71.74;100926.50;4982603;28;45322;-70
2021/06/18 04:27:43;;;;;;;;;7.00;7.00;;;;;22.20;71.86;100928.59;4981366;28;45368;-69
2021/06/18 04:30:11;;;;;;;;;5.00;4.75;;;;;22.14;71.89;100919.22;4981591;28;45372;-68
2021/06/18 04:32:37;;;;;;;;;5.50;4.75;;;;;22.11;72.39;100904.25;4997304;28;48620;-67
2021/06/18 04:35:04;;;;;;;;;4.75;4.75;;;;;22.11;72.54;100914.13;4982246;28;45209;-67
2021/06/18 04:37:30;;;;;;;;;7.50;6.25;;;;;22.11;72.82;100906.09;4980332;28;46618;-68
2021/06/18 04:39:55;;;;;;;;;10.25;7.75;;;;;22.09;72.87;100900.00;4980268;28;46245;-68
2021/06/18 04:42:21;;;;;;;;;8.00;8.00;;;;;22.09;72.81;100905.38;4981777;28;45549;-67
2021/06/18 04:44:46;;;;;;;;;6.25;6.00;;;;;22.08;73.10;100901.81;4981252;28;45309;-68
2021/06/18 04:47:12;;;;;;;;;7.50;7.50;;;;;22.08;72.83;100903.66;4981919;28;45580;-68
2021/06/18 04:49:37;;;;;;;;;6.75;6.50;;;;;22.08;73.22;100893.78;4979974;28;45438;-69
2021/06/18 04:52:05;;;;;;;;;8.75;7.25;;;;;22.09;73.72;100890.16;4981370;28;45375;-69
2021/06/18 04:54:31;;;;;;;;;6.50;6.00;;;;;22.12;73.36;100889.06;4980530;28;45238;-69
2021/06/18 04:56:56;;;;;;;;;6.75;6.00;;;;;22.16;73.42;100898.53;4980172;28;45170;-68
2021/06/18 04:59:22;;;;;;;;;8.25;7.00;;;;;22.20;73.50;100896.47;4980428;28;45483;-69
2021/06/18 05:01:47;;;;;;;;;8.50;6.50;;;;;22.22;73.70;100900.75;4981034;28;45444;-68
2021/06/18 05:04:12;;;;;;;;;8.25;8.25;;;;;22.24;73.58;100903.28;4981724;28;45252;-68
2021/06/18 05:06:38;;;;;;;;;4.75;4.75;;;;;22.25;73.56;100899.63;4981365;28;45502;-69
2021/06/18 05:09:05;;;;;;;;;8.00;7.00;;;;;22.29;73.57;100902.91;4981774;28;45149;-68
2021/06/18 05:11:30;;;;;;;;;8.00;8.00;;;;;22.35;73.71;100895.22;4984235;28;46618;-66
2021/06/18 05:13:56;;;;;;;;;9.50;9.50;;;;;22.41;73.53;100899.25;4981571;28;45339;-65
2021/06/18 05:16:21;;;;;;;;;4.75;4.75;;;;;22.46;73.46;100897.03;4980283;28;45402;-65
2021/06/18 05:18:47;;;;;;;;;6.50;5.50;;;;;22.53;72.26;100900.06;4986558;28;46901;-65
2021/06/18 05:21:12;;;;;;;;;7.25;5.75;;;;;22.61;71.61;100904.78;4978688;28;46904;-65
2021/06/18 05:23:38;;;;;;;;;8.00;6.50;;;;;22.70;72.02;100900.53;4990919;28;45602;-65
2021/06/18 05:26:03;;;;;;;;;7.50;6.50;;;;;22.77;72.36;100898.19;4981531;28;45466;-65
2021/06/18 05:28:29;;;;;;;;;5.75;5.75;;;;;22.83;72.28;100892.31;4983770;28;45323;-65
2021/06/18 05:30:54;;;;;;;;;7.50;6.25;;;;;22.90;71.57;100898.88;4980756;28;46104;-65
2021/06/18 05:33:20;;;;;;;;;6.00;5.00;;;;;22.95;72.04;100902.97;4980090;28;45348;-65
2021/06/18 05:35:46;;;;;;;;;6.75;6.00;;;;;23.01;70.40;100902.50;4981164;28;45267;-65
2021/06/18 05:38:12;;;;;;;;;8.50;8.50;;;;;23.07;71.25;100901.97;4980381;28;45189;-65
2021/06/18 05:40:41;;;;;;;;;7.00;7.00;;;;;23.14;70.87;100903.13;4995034;28;46931;-65
2021/06/18 05:43:10;;;;;;;;;8.50;8.50;;;;;23.22;71.31;100898.97;4981128;28;45332;-65
2021/06/18 05:45:37;;;;;;;;;8.75;7.75;;;;;23.27;70.58;100899.41;4986398;28;45230;-65
2021/06/18 05:48:03;;;;;;;;;8.00;6.75;;;;;23.32;69.76;100907.06;4980188;28;45429;-65
2021/06/18 05:50:29;;;;;;;;;7.50;7.00;;;;;23.36;69.47;100901.31;4979318;28;45434;-65
2021/06/18 05:52:54;;;;;;;;;9.00;9.00;;;;;23.42;69.47;100896.41;4980880;28;45282;-65
2021/06/18 05:55:20;;;;;;;;;8.00;7.50;;;;;23.47;68.67;100892.34;4979858;28;45246;-65
2021/06/18 05:57:45;;;;;;;;;6.75;6.75;;;;;23.52;69.72;100891.13;4980228;28;45672;-65
2021/06/18 06:00:11;;;;;;;;;7.75;7.75;;;;;23.59;68.69;100897.66;4980044;28;45375;-65
2021/06/18 06:02:37;;;;;;;;;10.00;7.00;;;;;23.61;68.15;100895.69;4979801;28;45479;-66
2021/06/18 06:05:02;;;;;;;;;7.00;6.00;;;;;23.63;67.84;100903.63;4981085;28;45385;-65
2021/06/18 06:07:27;;;;;;;;;6.00;6.00;;;;;23.66;67.92;100908.69;4977307;28;45523;-66
2021/06/18 06:09:53;;;;;;;;;7.00;7.00;;;;;23.68;67.39;100912.94;4979411;28;46911;-66
2021/06/18 06:12:18;;;;;;;;;8.00;7.00;;;;;23.71;67.75;100919.88;4982441;28;45411;-66
2021/06/18 06:14:43;;;;;;;;;8.75;7.50;;;;;23.73;68.07;100917.91;4980444;28;45276;-66
2021/06/18 06:17:09;;;;;;;;;8.25;7.25;;;;;23.71;67.77;100917.19;4980252;28;45379;-67
2021/06/18 06:19:34;;;;;;;;;9.00;9.00;;;;;23.75;68.67;100909.75;4979688;28;46379;-66
2021/06/18 06:21:59;;;;;;;;;11.00;8.50;;;;;23.76;68.84;100909.59;4979887;28;45470;-66
2021/06/18 06:24:25;;;;;;;;;5.25;5.25;;;;;23.78;68.46;100907.63;4980705;28;45462;-68
2021/06/18 06:26:50;;;;;;;;;6.50;6.50;;;;;23.81;67.62;100903.84;4980638;28;45478;-66
2021/06/18 06:29:16;;;;;;;;;13.50;11.75;;;;;23.79;68.32;100906.66;4980125;28;45472;-66
2021/06/18 06:31:44;;;;;;;;;9.75;9.25;;;;;23.83;67.63;100912.59;4980418;28;45265;-65
2021/06/18 06:34:10;;;;;;;;;12.50;10.75;;;;;23.83;67.65;100916.13;4979776;28;45368;-66
2021/06/18 06:36:35;;;;;;;;;12.25;10.75;;;;;23.88;68.07;100909.53;4979749;28;45611;-65
2021/06/18 06:39:02;;;;;;;;;8.75;8.25;;;;;23.89;67.45;100904.03;4978637;28;46087;-66
2021/06/18 06:41:27;;;;;;;;;9.00;9.00;;;;;23.91;67.29;100909.25;4983794;28;45304;-66
2021/06/18 06:43:53;;;;;;;;;9.00;9.00;;;;;23.88;67.05;100906.84;4981925;28;45375;-66
2021/06/18 06:46:20;;;;;;;;;10.75;8.00;;;;;23.90;67.08;100907.56;4979419;28;45346;-66
2021/06/18 06:48:46;;;;;;;;;9.25;9.00;;;;;23.91;66.96;100906.56;4978557;28;47209;-66
2021/06/18 06:51:11;;;;;;;;;9.00;9.00;;;;;23.90;66.81;100915.63;4979796;28;45222;-66
2021/06/18 06:53:36;;;;;;;;;13.00;8.75;;;;;23.93;67.33;100915.31;4979725;28;45229;-66
2021/06/18 06:56:02;;;;;;;;;10.00;10.00;;;;;23.94;67.68;100914.34;4979881;28;45469;-66
2021/06/18 06:58:27;;;;;;;;;8.50;8.25;;;;;23.98;67.57;100909.56;4978643;28;47083;-66
2021/06/18 07:00:52;;;;;;;;;9.00;9.00;;;;;23.98;66.96;100912.25;4977995;28;45241;-66
2021/06/18 07:03:17;;;;;;;;;9.75;9.00;;;;;23.92;66.70;100919.00;4977456;28;45264;-66
2021/06/18 07:05:43;;;;;;;;;12.50;12.00;;;;;23.93;66.59;100918.00;4977275;28;45438;-66
2021/06/18 07:08:16;;;;;;;;;9.25;8.00;;;;;23.92;66.16;100909.13;4976717;28;46473;-66
2021/06/18 07:10:42;;;;;;;;;8.75;7.75;;;;;23.94;66.51;100911.66;4977184;28;45958;-66
2021/06/18 07:13:07;;;;;;;;;12.00;11.00;;;;;23.94;66.27;100919.72;4966606;28;45814;-66
2021/06/18 07:15:32;;;;;;;;;13.75;12.00;;;;;23.95;67.10;100929.50;4969244;28;45486;-66
2021/06/18 07:17:58;;;;;;;;;11.50;10.00;;;;;24.01;66.15;100925.38;4979161;28;45266;-66
2021/06/18 07:20:23;;;;;;;;;8.00;8.00;;;;;24.04;65.79;100931.34;4983775;28;45728;-66
2021/06/18 07:22:48;;;;;;;;;9.50;8.25;;;;;24.08;66.12;100926.53;4981161;28;45252;-66
2021/06/18 07:25:14;;;;;;;;;9.25;7.25;;;;;24.10;66.03;100934.47;4975906;28;45516;-66
2021/06/18 07:27:39;;;;;;;;;7.50;7.50;;;;;24.08;65.77;100929.22;4979279;28;45565;-66
2021/06/18 07:30:05;;;;;;;;;9.75;9.00;;;;;24.10;66.26;100934.47;4979348;28;45385;-66
2021/06/18 07:32:30;;;;;;;;;11.25;10.75;;;;;24.13;65.75;100942.25;4979511;28;45517;-66
2021/06/18 07:34:56;;;;;;;;;7.25;7.25;;;;;24.12;65.59;100944.09;4971750;28;45980;-66
2021/06/18 07:37:21;;;;;;;;;9.00;9.00;;;;;24.14;65.53;100936.75;4978093;28;45410;-64
2021/06/18 07:39:48;;;;;;;;;10.50;8.50;;;;;24.15;65.54;100946.50;4978005;28;45344;-66
2021/06/18 07:42:13;;;;;;;;;10.75;9.00;;;;;24.17;65.00;100943.69;4980035;28;45264;-66
2021/06/18 07:44:38;;;;;;;;;9.00;9.00;;;;;24.15;64.80;100933.06;4977634;28;45329;-66
2021/06/18 07:47:05;;;;;;;;;8.00;8.00;;;;;24.12;64.99;100935.19;4979026;28;46581;-66
2021/06/18 07:49:31;;;;;;;;;9.00;9.00;;;;;24.13;64.88;100939.56;4972660;28;45352;-66
2021/06/18 07:51:56;;;;;;;;;8.75;8.75;;;;;24.12;64.77;100935.19;4978230;28;45940;-66
2021/06/18 07:54:22;;;;;;;;;10.50;7.75;;;;;24.13;64.89;100932.38;4978599;28;45202;-67
2021/06/18 07:56:47;;;;;;;;;10.25;8.50;;;;;24.17;65.17;100939.16;4982517;28;45600;-67
2021/06/18 07:59:13;;;;;;;;;9.50;8.25;;;;;24.15;64.83;100934.94;4979233;28;45172;-67
2021/06/18 08:01:38;;;;;;;;;10.50;8.75;;;;;24.16;64.34;100939.31;4983070;28;45332;-67
2021/06/18 08:04:04;;;;;;;;;6.50;6.25;;;;;24.10;63.96;100942.53;4980021;28;45474;-67
2021/06/18 08:06:29;;;;;;;;;9.00;6.75;;;;;24.05;63.87;100941.09;4985715;28;46080;-67
2021/06/18 08:08:55;;;;;;;;;5.75;5.75;;;;;24.08;63.66;100949.84;4980156;28;45452;-68
2021/06/18 08:11:20;;;;;;;;;8.75;7.25;;;;;24.07;63.42;100935.59;4981955;28;45427;-67
2021/06/18 08:13:45;;;;;;;;;6.50;5.00;;;;;24.07;63.29;100932.06;4988829;28;47213;-67
2021/06/18 08:16:11;;;;;;;;;8.25;6.75;;;;;24.07;63.57;100932.06;4983402;28;45381;-67
2021/06/18 08:18:38;;;;;;;;;7.25;7.00;;;;;24.12;63.77;100924.47;4982176;28;45244;-64
2021/06/18 08:21:05;;;;;;;;;4.25;3.75;;;;;24.19;63.06;100930.13;4981019;28;45419;-65
2021/06/18 08:23:31;;;;;;;;;1.75;1.75;;;;;24.19;63.16;100922.94;4982506;28;45219;-65
2021/06/18 08:25:57;;;;;;;;;5.75;5.75;;;;;24.17;62.62;100916.84;4981330;28;45471;-64
2021/06/18 08:28:22;;;;;;;;;7.00;7.00;;;;;24.18;62.73;100918.53;4981667;28;45241;-64
2021/06/18 08:30:48;;;;;;;;;8.50;6.75;;;;;24.23;62.60;100921.66;4984259;28;45232;-64
2021/06/18 08:33:13;;;;;;;;;15.25;11.00;;;;;24.24;62.52;100918.00;4981326;28;45402;-64
2021/06/18 08:35:39;;;;;;;;;12.25;9.25;;;;;24.28;62.54;100923.97;4981934;28;45431;-64
2021/06/18 08:38:05;;;;;;;;;12.75;10.75;;;;;24.30;62.50;100913.09;4979728;28;45450;-65
2021/06/18 08:40:33;;;;;;;;;10.00;7.50;;;;;24.32;62.62;100916.50;4980331;28;45468;-65
2021/06/18 08:42:59;;;;;;;;;7.25;6.50;;;;;24.33;62.43;100919.03;4982242;28;45237;-65
2021/06/18 08:45:25;;;;;;;;;7.50;6.00;;;;;24.33;62.12;100910.13;4981510;28;45367;-65
2021/06/18 08:47:51;;;;;;;;;8.50;8.00;;;;;24.35;62.30;100909.00;4981957;28;45228;-65
2021/06/18 08:50:25;;;;;;;;;9.75;7.75;;;;;24.34;62.05;100901.09;4981032;28;45595;-65
2021/06/18 08:52:58;;;;;;;;;7.50;7.50;;;;;24.33;61.95;100910.13;4982180;28;45458;-65
2021/06/18 08:55:27;;;;;;;;;7.75;7.50;;;;;24.38;61.93;100913.25;4977908;28;46335;-65
2021/06/18 08:57:58;;;;;;;;;6.50;6.25;;;;;24.35;61.62;100918.88;4989115;28;45169;-65
2021/06/18 09:00:25;;;;;;;;;6.25;6.25;;;;;24.37;61.87;100922.31;4980996;28;45412;-65
2021/06/18 09:02:51;;;;;;;;;7.75;7.75;;;;;24.37;61.80;100927.69;4980531;28;45500;-65
2021/06/18 09:05:17;;;;;;;;;6.25;6.25;;;;;24.36;61.61;100916.06;4980614;28;45447;-65
2021/06/18 09:08:02;;;;;;;;;8.25;7.00;;;;;24.35;61.73;100921.56;4982551;28;45232;-65
2021/06/18 09:10:30;;;;;;;;;9.50;7.00;;;;;24.32;61.49;100921.88;4981072;28;45378;-65
2021/06/18 09:13:17;;;;;;;;;7.50;7.50;;;;;24.34;61.73;100923.44;4981522;28;45487;-65
2021/06/18 09:15:51;;;;;;;;;8.50;8.00;;;;;24.38;61.51;100924.00;4981798;28;46257;-65
2021/06/18 09:18:21;;;;;;;;;8.75;7.00;;;;;24.40;61.39;100922.00;4980912;28;45275;-65
2021/06/18 09:20:47;;;;;;;;;7.75;7.25;;;;;24.46;61.71;100921.47;4980524;28;46733;-65
2021/06/18 09:23:27;;;;;;;;;5.00;5.00;;;;;24.49;61.57;100926.56;4980443;28;45304;-65
2021/06/18 09:26:20;;;;;;;;;9.50;8.00;;;;;24.48;61.40;100922.19;4980493;28;45433;-65
2021/06/18 09:28:56;;;;;;;;;7.25;7.25;;;;;24.50;60.87;100922.88;4980909;28;45299;-65
2021/06/18 09:31:23;;;;;;;;;8.50;7.00;;;;;24.48;61.54;100914.13;4981050;28;45549;-65
2021/06/18 09:33:48;;;;;;;;;8.25;8.00;;;;;24.46;61.37;100915.25;4980005;28;45530;-65
2021/06/18 09:36:14;;;;;;;;;8.50;8.00;;;;;24.46;61.29;100921.47;4979561;28;45662;-65
2021/06/18 09:38:48;;;;;;;;;8.50;8.50;;;;;24.44;61.35;100918.09;4978847;28;45487;-65
2021/06/18 09:41:27;;;;;;;;;8.00;7.25;;;;;24.47;61.11;100933.91;4989383;28;45350;-65
2021/06/18 09:43:57;;;;;;;;;7.25;7.00;;;;;24.47;60.90;100922.34;4983901;28;45552;-64
2021/06/18 09:46:41;;;;;;;;;8.50;8.50;;;;;24.50;60.68;100925.56;4980235;28;46415;-65
2021/06/18 09:49:06;;;;;;;;;9.50;7.50;;;;;24.50;60.85;100922.88;4981114;28;45656;-65
2021/06/18 09:51:31;;;;;;;;;8.00;8.00;;;;;24.49;60.93;100931.94;4979982;28;45324;-65
2021/06/18 09:54:15;;;;;;;;;9.75;9.25;;;;;24.39;60.75;100931.94;4979802;28;45795;-65
2021/06/18 09:56:41;;;;;;;;;6.25;6.25;;;;;24.47;60.59;100941.97;4980726;28;46513;-65
2021/06/18 09:59:19;;;;;;;;;7.25;6.00;;;;;24.53;60.04;100939.72;4981043;28;45480;-65
2021/06/18 10:01:52;;;;;;;;;6.75;6.75;;;;;24.54;59.81;100936.06;4979791;28;45360;-65
2021/06/18 10:04:18;;;;;;;;;6.75;5.75;;;;;24.57;59.90;100943.84;4979835;28;45497;-77
2021/06/18 10:06:43;;;;;;;;;4.00;4.00;;;;;24.68;60.10;100950.91;4977693;28;48187;-77
2021/06/18 10:09:11;;;;;;;;;5.75;4.75;;;;;24.78;59.73;100945.56;4980252;28;46566;-77
2021/06/18 10:11:42;;;;;;;;;4.50;4.50;;;;;24.89;60.00;100953.47;4981008;28;45142;-78
2021/06/18 10:14:08;;;;;;;;;4.00;4.00;;;;;25.00;59.28;100949.00;4980449;28;45371;-77
2021/06/18 10:16:33;;;;;;;;;4.25;3.25;;;;;25.11;59.30;100951.56;4979995;28;45387;-78
2021/06/18 10:19:00;;;;;;;;;4.50;4.00;;;;;25.21;59.36;100940.75;4978700;28;45760;-78
2021/06/18 10:21:34;;;;;;;;;5.25;5.25;;;;;25.31;59.00;100942.63;4978408;28;45534;-78
2021/06/18 10:24:04;;;;;;;;;5.00;5.00;;;;;25.40;58.75;100953.38;4979276;28;46058;-77
2021/06/18 10:26:30;;;;;;;;;4.00;4.00;;;;;25.48;58.08;100955.31;4979949;28;45559;-78
2021/06/18 10:28:58;;;;;;;;;7.25;6.00;;;;;25.54;57.99;100953.91;4980046;28;45421;-78
2021/06/18 10:31:35;;;;;;;;;5.75;3.50;;;;;25.61;57.76;100962.22;4979274;28;45423;-77
2021/06/18 10:34:16;;;;;;;;;4.25;4.25;;;;;25.65;57.40;100960.97;4967403;28;46309;-78
2021/06/18 10:36:42;;;;;;;;;4.50;4.50;;;;;25.71;57.31;100962.22;4979333;28;46180;-77
2021/06/18 10:39:16;;;;;;;;;3.00;3.00;;;;;25.73;56.52;100971.03;4979079;28;45286;-77
2021/06/18 10:41:45;;;;;;;;;4.50;4.25;;;;;25.75;56.36;100971.75;4980243;28;45331;-77
2021/06/18 10:44:11;;;;;;;;;3.00;3.00;;;;;25.75;56.83;100968.19;4978591;28;46169;-76
2021/06/18 10:46:37;;;;;;;;;4.00;4.00;;;;;25.76;56.49;100970.72;4977296;28;45946;-76
2021/06/18 10:49:25;;;;;;;;;3.75;3.75;;;;;25.79;56.52;100970.44;4979872;28;45255;-76
2021/06/18 10:51:51;;;;;;;;;3.25;3.25;;;;;25.82;56.76;100963.91;4977142;28;45523;-75
2021/06/18 10:54:34;;;;;;;;;6.25;4.50;;;;;25.79;56.37;100981.22;4979931;28;45233;-76
2021/06/18 10:57:00;;;;;;;;;4.00;4.00;;;;;25.81;56.67;100992.69;4980003;28;45659;-76
2021/06/18 10:59:29;;;;;;;;;5.50;5.00;;;;;25.83;56.52;100985.31;4980139;28;45312;-76
2021/06/18 11:01:55;;;;;;;;;4.00;4.00;;;;;25.87;55.86;100974.25;4980154;28;45335;-76
2021/06/18 11:05:10;;;;;;;;;4.00;3.00;;;;;25.89;56.29;100969.56;4978778;28;45521;-76
2021/06/18 11:07:40;;;;;;;;;3.75;3.75;;;;;25.93;56.33;100968.25;4950556;28;46573;-76
2021/06/18 11:10:07;;;;;;;;;2.50;2.00;;;;;25.94;55.63;100973.53;4980031;28;45429;-77
2021/06/18 11:12:33;;;;;;;;;3.25;3.25;;;;;25.93;55.14;100979.88;4978816;28;45351;-77
2021/06/18 11:14:59;;;;;;;;;6.00;4.25;;;;;25.91;54.93;100979.19;4979907;28;45355;-76
2021/06/18 11:17:37;;;;;;;;;4.25;4.25;;;;;25.93;55.20;100981.72;4979647;28;45319;-77
2021/06/18 11:20:04;;;;;;;;;6.25;4.00;;;;;25.94;54.94;100984.28;4979846;28;45452;-76
2021/06/18 11:22:53;;;;;;;;;4.00;4.00;;;;;25.96;54.75;100993.06;4978365;28;45280;-76
2021/06/18 11:25:42;;;;;;;;;5.00;5.00;;;;;25.98;55.09;100984.81;4979663;28;45411;-76
2021/06/18 11:28:24;;;;;;;;;3.00;3.00;;;;;26.00;54.98;100998.97;4969043;28;45576;-76
2021/06/18 11:30:50;;;;;;;;;3.25;3.25;;;;;26.04;55.59;100983.41;4979404;28;45276;-76